sensor_id;sensor_type;location;lat;lon;timestamp;P1;durP1;ratioP1;P2;durP2;ratioP2
80104;SDS011;69865;47.648;19.030;2023-05-07T00:00:07;14.57;;;14.57;;
80104;SDS011;69865;47.648;19.030;2023-05-07T00:00:39;14.53;;;14.53;;
80104;SDS011;69865;47.648;19.030;2023-05-07T00:01:09;13.70;;;13.70;;
80104;SDS011;69865;47.648;19.030;2023-05-07T00:01:40;13.43;;;13.43;;
80104;SDS011;69865;47.648;19.030;2023-05-07T00:02:11;13.53;;;13.53;;
80104;SDS011;69865;47.648;19.030;2023-05-07T00:02:42;13.67;;;13.67;;
80104;SDS011;69865;47.648;19.030;2023-05-07T00:03:12;14.03;;;14.03;;
80104;SDS011;69865;47.648;19.030;2023-05-07T00:03:43;14.50;;;14.50;;
80104;SDS011;69865;47.648;19.030;2023-05-07T00:04:14;13.13;;;13.13;;
80104;SDS011;69865;47.648;19.030;2023-05-07T00:04:44;14.03;;;14.03;;
80104;SDS011;69865;47.648;19.030;2023-05-07T00:05:15;13.97;;;13.97;;
80104;SDS011;69865;47.648;19.030;2023-05-07T00:05:46;12.77;;;12.77;;
80104;SDS011;69865;47.648;19.030;2023-05-07T00:06:17;14.53;;;14.53;;
80104;SDS011;69865;47.648;19.030;2023-05-07T00:06:47;14.20;;;14.20;;
80104;SDS011;69865;47.648;19.030;2023-05-07T00:07:18;14.20;;;14.20;;
80104;SDS011;69865;47.648;19.030;2023-05-07T00:07:49;14.10;;;14.10;;
80104;SDS011;69865;47.648;19.030;2023-05-07T00:08:20;12.77;;;12.77;;
80104;SDS011;69865;47.648;19.030;2023-05-07T00:08:50;12.97;;;12.97;;
80104;SDS011;69865;47.648;19.030;2023-05-07T00:09:21;13.10;;;13.10;;
80104;SDS011;69865;47.648;19.030;2023-05-07T00:09:52;13.10;;;13.10;;
80104;SDS011;69865;47.648;19.030;2023-05-07T00:10:23;13.43;;;13.43;;
80104;SDS011;69865;47.648;19.030;2023-05-07T00:10:53;12.77;;;12.77;;
80104;SDS011;69865;47.648;19.030;2023-05-07T00:11:24;12.70;;;12.70;;
80104;SDS011;69865;47.648;19.030;2023-05-07T00:11:56;13.33;;;13.33;;
80104;SDS011;69865;47.648;19.030;2023-05-07T00:12:27;13.73;;;13.73;;
80104;SDS011;69865;47.648;19.030;2023-05-07T00:12:58;13.10;;;13.10;;
80104;SDS011;69865;47.648;19.030;2023-05-07T00:13:29;13.40;;;13.40;;
80104;SDS011;69865;47.648;19.030;2023-05-07T00:13:59;13.07;;;13.07;;
80104;SDS011;69865;47.648;19.030;2023-05-07T00:14:30;13.37;;;13.37;;
80104;SDS011;69865;47.648;19.030;2023-05-07T00:15:01;13.20;;;13.20;;
80104;SDS011;69865;47.648;19.030;2023-05-07T00:15:32;12.70;;;12.70;;
80104;SDS011;69865;47.648;19.030;2023-05-07T00:16:03;12.67;;;12.67;;
80104;SDS011;69865;47.648;19.030;2023-05-07T00:16:34;12.63;;;12.63;;
80104;SDS011;69865;47.648;19.030;2023-05-07T00:17:05;12.73;;;12.73;;
80104;SDS011;69865;47.648;19.030;2023-05-07T00:17:36;12.57;;;12.57;;
80104;SDS011;69865;47.648;19.030;2023-05-07T00:18:07;12.73;;;12.73;;
80104;SDS011;69865;47.648;19.030;2023-05-07T00:18:38;12.47;;;12.47;;
80104;SDS011;69865;47.648;19.030;2023-05-07T00:19:09;12.10;;;12.10;;
80104;SDS011;69865;47.648;19.030;2023-05-07T00:19:39;12.17;;;12.17;;
80104;SDS011;69865;47.648;19.030;2023-05-07T00:20:10;12.33;;;12.33;;
80104;SDS011;69865;47.648;19.030;2023-05-07T00:20:42;12.20;;;12.20;;
80104;SDS011;69865;47.648;19.030;2023-05-07T00:21:12;12.23;;;12.23;;
80104;SDS011;69865;47.648;19.030;2023-05-07T00:21:43;12.03;;;12.03;;
80104;SDS011;69865;47.648;19.030;2023-05-07T00:22:14;12.40;;;12.40;;
80104;SDS011;69865;47.648;19.030;2023-05-07T00:22:45;12.97;;;12.97;;
80104;SDS011;69865;47.648;19.030;2023-05-07T00:23:15;12.80;;;12.80;;
80104;SDS011;69865;47.648;19.030;2023-05-07T00:23:46;12.77;;;12.77;;
80104;SDS011;69865;47.648;19.030;2023-05-07T00:24:17;12.23;;;12.23;;
80104;SDS011;69865;47.648;19.030;2023-05-07T00:24:48;12.90;;;12.90;;
80104;SDS011;69865;47.648;19.030;2023-05-07T00:25:18;12.63;;;12.63;;
80104;SDS011;69865;47.648;19.030;2023-05-07T00:25:49;12.63;;;12.63;;
80104;SDS011;69865;47.648;19.030;2023-05-07T00:26:20;12.27;;;12.27;;
80104;SDS011;69865;47.648;19.030;2023-05-07T00:26:51;12.43;;;12.43;;
80104;SDS011;69865;47.648;19.030;2023-05-07T00:27:23;12.33;;;12.33;;
80104;SDS011;69865;47.648;19.030;2023-05-07T00:27:54;11.90;;;11.90;;
80104;SDS011;69865;47.648;19.030;2023-05-07T00:28:25;11.37;;;11.37;;
80104;SDS011;69865;47.648;19.030;2023-05-07T00:28:56;11.37;;;11.37;;
80104;SDS011;69865;47.648;19.030;2023-05-07T00:29:26;12.37;;;12.37;;
80104;SDS011;69865;47.648;19.030;2023-05-07T00:29:57;11.87;;;11.87;;
80104;SDS011;69865;47.648;19.030;2023-05-07T00:30:28;12.50;;;12.50;;
80104;SDS011;69865;47.648;19.030;2023-05-07T00:30:59;12.50;;;12.50;;
80104;SDS011;69865;47.648;19.030;2023-05-07T00:31:29;12.43;;;12.43;;
80104;SDS011;69865;47.648;19.030;2023-05-07T00:32:00;12.47;;;12.47;;
80104;SDS011;69865;47.648;19.030;2023-05-07T00:32:31;11.93;;;11.93;;
80104;SDS011;69865;47.648;19.030;2023-05-07T00:33:02;12.97;;;12.97;;
80104;SDS011;69865;47.648;19.030;2023-05-07T00:33:32;13.07;;;13.07;;
80104;SDS011;69865;47.648;19.030;2023-05-07T00:34:03;12.10;;;12.10;;
80104;SDS011;69865;47.648;19.030;2023-05-07T00:34:34;12.07;;;12.07;;
80104;SDS011;69865;47.648;19.030;2023-05-07T00:35:05;12.20;;;12.20;;
80104;SDS011;69865;47.648;19.030;2023-05-07T00:35:37;11.33;;;11.33;;
80104;SDS011;69865;47.648;19.030;2023-05-07T00:36:07;11.10;;;11.10;;
80104;SDS011;69865;47.648;19.030;2023-05-07T00:36:38;11.57;;;11.57;;
80104;SDS011;69865;47.648;19.030;2023-05-07T00:37:09;11.73;;;11.73;;
80104;SDS011;69865;47.648;19.030;2023-05-07T00:37:40;12.00;;;12.00;;
80104;SDS011;69865;47.648;19.030;2023-05-07T00:38:11;11.27;;;11.27;;
80104;SDS011;69865;47.648;19.030;2023-05-07T00:38:41;11.97;;;11.97;;
80104;SDS011;69865;47.648;19.030;2023-05-07T00:39:12;11.53;;;11.53;;
80104;SDS011;69865;47.648;19.030;2023-05-07T00:39:43;11.43;;;11.43;;
80104;SDS011;69865;47.648;19.030;2023-05-07T00:40:13;11.17;;;11.17;;
80104;SDS011;69865;47.648;19.030;2023-05-07T00:40:44;10.63;;;10.63;;
80104;SDS011;69865;47.648;19.030;2023-05-07T00:41:15;11.43;;;11.43;;
80104;SDS011;69865;47.648;19.030;2023-05-07T00:41:46;11.50;;;11.50;;
80104;SDS011;69865;47.648;19.030;2023-05-07T00:42:17;11.63;;;11.63;;
80104;SDS011;69865;47.648;19.030;2023-05-07T00:42:49;11.43;;;11.43;;
80104;SDS011;69865;47.648;19.030;2023-05-07T00:43:19;10.97;;;10.97;;
80104;SDS011;69865;47.648;19.030;2023-05-07T00:43:50;11.10;;;11.10;;
80104;SDS011;69865;47.648;19.030;2023-05-07T00:44:21;10.93;;;10.93;;
80104;SDS011;69865;47.648;19.030;2023-05-07T00:44:52;10.97;;;10.97;;
80104;SDS011;69865;47.648;19.030;2023-05-07T00:45:22;10.93;;;10.93;;
80104;SDS011;69865;47.648;19.030;2023-05-07T00:45:56;10.87;;;10.87;;
80104;SDS011;69865;47.648;19.030;2023-05-07T00:46:27;11.17;;;11.17;;
80104;SDS011;69865;47.648;19.030;2023-05-07T00:47:01;10.57;;;10.57;;
80104;SDS011;69865;47.648;19.030;2023-05-07T00:47:35;10.40;;;10.40;;
80104;SDS011;69865;47.648;19.030;2023-05-07T00:48:06;10.87;;;10.87;;
80104;SDS011;69865;47.648;19.030;2023-05-07T00:48:37;10.97;;;10.97;;
80104;SDS011;69865;47.648;19.030;2023-05-07T00:49:08;10.40;;;10.40;;
80104;SDS011;69865;47.648;19.030;2023-05-07T00:49:39;10.77;;;10.77;;
80104;SDS011;69865;47.648;19.030;2023-05-07T00:50:12;10.53;;;10.53;;
80104;SDS011;69865;47.648;19.030;2023-05-07T00:50:43;9.93;;;9.93;;
80104;SDS011;69865;47.648;19.030;2023-05-07T00:51:15;10.93;;;10.93;;
80104;SDS011;69865;47.648;19.030;2023-05-07T00:51:47;11.13;;;11.13;;
80104;SDS011;69865;47.648;19.030;2023-05-07T00:52:18;11.17;;;11.17;;
80104;SDS011;69865;47.648;19.030;2023-05-07T00:52:51;11.47;;;11.47;;
80104;SDS011;69865;47.648;19.030;2023-05-07T00:53:23;11.10;;;11.10;;
80104;SDS011;69865;47.648;19.030;2023-05-07T00:53:54;11.33;;;11.33;;
80104;SDS011;69865;47.648;19.030;2023-05-07T00:54:25;11.87;;;11.87;;
80104;SDS011;69865;47.648;19.030;2023-05-07T00:54:56;10.80;;;10.80;;
80104;SDS011;69865;47.648;19.030;2023-05-07T00:55:27;10.60;;;10.60;;
80104;SDS011;69865;47.648;19.030;2023-05-07T00:55:58;11.27;;;11.27;;
80104;SDS011;69865;47.648;19.030;2023-05-07T00:56:29;11.00;;;11.00;;
80104;SDS011;69865;47.648;19.030;2023-05-07T00:57:02;11.50;;;11.50;;
80104;SDS011;69865;47.648;19.030;2023-05-07T00:57:34;12.93;;;12.93;;
80104;SDS011;69865;47.648;19.030;2023-05-07T00:58:08;12.07;;;12.07;;
80104;SDS011;69865;47.648;19.030;2023-05-07T00:58:39;11.63;;;11.63;;
80104;SDS011;69865;47.648;19.030;2023-05-07T00:59:10;11.03;;;11.03;;
80104;SDS011;69865;47.648;19.030;2023-05-07T00:59:41;10.97;;;10.97;;
80104;SDS011;69865;47.648;19.030;2023-05-07T01:00:12;11.20;;;11.20;;
80104;SDS011;69865;47.648;19.030;2023-05-07T01:00:43;11.87;;;11.87;;
80104;SDS011;69865;47.648;19.030;2023-05-07T01:01:14;11.93;;;11.93;;
80104;SDS011;69865;47.648;19.030;2023-05-07T01:01:45;11.53;;;11.53;;
80104;SDS011;69865;47.648;19.030;2023-05-07T01:02:16;11.07;;;11.07;;
80104;SDS011;69865;47.648;19.030;2023-05-07T01:02:47;11.33;;;11.33;;
80104;SDS011;69865;47.648;19.030;2023-05-07T01:03:18;11.50;;;11.50;;
80104;SDS011;69865;47.648;19.030;2023-05-07T01:03:48;11.40;;;11.40;;
80104;SDS011;69865;47.648;19.030;2023-05-07T01:04:19;10.87;;;10.87;;
80104;SDS011;69865;47.648;19.030;2023-05-07T01:04:50;11.03;;;11.03;;
80104;SDS011;69865;47.648;19.030;2023-05-07T01:05:21;11.57;;;11.57;;
80104;SDS011;69865;47.648;19.030;2023-05-07T01:05:54;10.93;;;10.93;;
80104;SDS011;69865;47.648;19.030;2023-05-07T01:06:27;11.20;;;11.20;;
80104;SDS011;69865;47.648;19.030;2023-05-07T01:07:02;10.83;;;10.83;;
80104;SDS011;69865;47.648;19.030;2023-05-07T01:07:35;11.07;;;11.07;;
80104;SDS011;69865;47.648;19.030;2023-05-07T01:08:07;11.33;;;11.33;;
80104;SDS011;69865;47.648;19.030;2023-05-07T01:08:38;10.70;;;10.70;;
80104;SDS011;69865;47.648;19.030;2023-05-07T01:09:11;11.37;;;11.37;;
80104;SDS011;69865;47.648;19.030;2023-05-07T01:09:43;12.53;;;12.53;;
80104;SDS011;69865;47.648;19.030;2023-05-07T01:10:13;12.10;;;12.10;;
80104;SDS011;69865;47.648;19.030;2023-05-07T01:10:45;11.67;;;11.67;;
80104;SDS011;69865;47.648;19.030;2023-05-07T01:11:17;11.57;;;11.57;;
80104;SDS011;69865;47.648;19.030;2023-05-07T01:11:48;11.23;;;11.23;;
80104;SDS011;69865;47.648;19.030;2023-05-07T01:12:20;10.30;;;10.30;;
80104;SDS011;69865;47.648;19.030;2023-05-07T01:12:52;10.17;;;10.17;;
80104;SDS011;69865;47.648;19.030;2023-05-07T01:13:25;10.53;;;10.53;;
80104;SDS011;69865;47.648;19.030;2023-05-07T01:13:57;11.17;;;11.17;;
80104;SDS011;69865;47.648;19.030;2023-05-07T01:14:30;11.63;;;11.63;;
80104;SDS011;69865;47.648;19.030;2023-05-07T01:15:01;11.13;;;11.13;;
80104;SDS011;69865;47.648;19.030;2023-05-07T01:15:32;11.33;;;11.33;;
80104;SDS011;69865;47.648;19.030;2023-05-07T01:16:03;11.90;;;11.90;;
80104;SDS011;69865;47.648;19.030;2023-05-07T01:16:35;10.63;;;10.63;;
80104;SDS011;69865;47.648;19.030;2023-05-07T01:17:06;10.80;;;10.80;;
80104;SDS011;69865;47.648;19.030;2023-05-07T01:17:38;11.23;;;11.23;;
80104;SDS011;69865;47.648;19.030;2023-05-07T01:18:10;10.70;;;10.70;;
80104;SDS011;69865;47.648;19.030;2023-05-07T01:18:41;11.20;;;11.20;;
80104;SDS011;69865;47.648;19.030;2023-05-07T01:19:12;11.83;;;11.83;;
80104;SDS011;69865;47.648;19.030;2023-05-07T01:19:48;11.77;;;11.77;;
80104;SDS011;69865;47.648;19.030;2023-05-07T01:20:19;10.93;;;10.93;;
80104;SDS011;69865;47.648;19.030;2023-05-07T01:20:51;11.10;;;11.10;;
80104;SDS011;69865;47.648;19.030;2023-05-07T01:21:23;11.53;;;11.53;;
80104;SDS011;69865;47.648;19.030;2023-05-07T01:21:57;10.77;;;10.77;;
80104;SDS011;69865;47.648;19.030;2023-05-07T01:22:34;10.93;;;10.93;;
80104;SDS011;69865;47.648;19.030;2023-05-07T01:23:05;10.83;;;10.83;;
80104;SDS011;69865;47.648;19.030;2023-05-07T01:23:37;10.70;;;10.70;;
80104;SDS011;69865;47.648;19.030;2023-05-07T01:24:09;11.27;;;11.27;;
80104;SDS011;69865;47.648;19.030;2023-05-07T01:24:41;10.83;;;10.83;;
80104;SDS011;69865;47.648;19.030;2023-05-07T01:25:13;11.00;;;11.00;;
80104;SDS011;69865;47.648;19.030;2023-05-07T01:25:50;11.37;;;11.37;;
80104;SDS011;69865;47.648;19.030;2023-05-07T01:26:22;10.50;;;10.50;;
80104;SDS011;69865;47.648;19.030;2023-05-07T01:26:53;10.53;;;10.53;;
80104;SDS011;69865;47.648;19.030;2023-05-07T01:27:24;11.33;;;11.33;;
80104;SDS011;69865;47.648;19.030;2023-05-07T01:27:54;11.03;;;11.03;;
80104;SDS011;69865;47.648;19.030;2023-05-07T01:28:25;10.13;;;10.13;;
80104;SDS011;69865;47.648;19.030;2023-05-07T01:28:56;10.70;;;10.70;;
80104;SDS011;69865;47.648;19.030;2023-05-07T01:29:27;10.13;;;10.13;;
80104;SDS011;69865;47.648;19.030;2023-05-07T01:29:58;9.83;;;9.83;;
80104;SDS011;69865;47.648;19.030;2023-05-07T01:30:29;10.20;;;10.20;;
80104;SDS011;69865;47.648;19.030;2023-05-07T01:31:01;10.30;;;10.30;;
80104;SDS011;69865;47.648;19.030;2023-05-07T01:31:33;10.30;;;10.30;;
80104;SDS011;69865;47.648;19.030;2023-05-07T01:32:06;10.93;;;10.93;;
80104;SDS011;69865;47.648;19.030;2023-05-07T01:32:40;10.53;;;10.53;;
80104;SDS011;69865;47.648;19.030;2023-05-07T01:33:18;10.57;;;10.57;;
80104;SDS011;69865;47.648;19.030;2023-05-07T01:33:51;10.33;;;10.33;;
80104;SDS011;69865;47.648;19.030;2023-05-07T01:34:24;10.43;;;10.43;;
80104;SDS011;69865;47.648;19.030;2023-05-07T01:34:57;10.23;;;10.23;;
80104;SDS011;69865;47.648;19.030;2023-05-07T01:35:32;10.10;;;10.10;;
80104;SDS011;69865;47.648;19.030;2023-05-07T01:36:06;10.30;;;10.30;;
80104;SDS011;69865;47.648;19.030;2023-05-07T01:36:39;10.80;;;10.80;;
80104;SDS011;69865;47.648;19.030;2023-05-07T01:37:13;11.10;;;11.10;;
80104;SDS011;69865;47.648;19.030;2023-05-07T01:37:46;10.80;;;10.80;;
80104;SDS011;69865;47.648;19.030;2023-05-07T01:38:18;10.60;;;10.60;;
80104;SDS011;69865;47.648;19.030;2023-05-07T01:38:51;10.83;;;10.83;;
80104;SDS011;69865;47.648;19.030;2023-05-07T01:39:23;11.53;;;11.53;;
80104;SDS011;69865;47.648;19.030;2023-05-07T01:39:55;10.47;;;10.47;;
80104;SDS011;69865;47.648;19.030;2023-05-07T01:40:27;10.77;;;10.77;;
80104;SDS011;69865;47.648;19.030;2023-05-07T01:40:58;11.00;;;11.00;;
80104;SDS011;69865;47.648;19.030;2023-05-07T01:41:29;10.83;;;10.83;;
80104;SDS011;69865;47.648;19.030;2023-05-07T01:42:00;10.53;;;10.53;;
80104;SDS011;69865;47.648;19.030;2023-05-07T01:42:31;10.60;;;10.60;;
80104;SDS011;69865;47.648;19.030;2023-05-07T01:43:02;10.93;;;10.93;;
80104;SDS011;69865;47.648;19.030;2023-05-07T01:43:33;10.23;;;10.23;;
80104;SDS011;69865;47.648;19.030;2023-05-07T01:44:04;10.27;;;10.27;;
80104;SDS011;69865;47.648;19.030;2023-05-07T01:44:36;10.43;;;10.43;;
80104;SDS011;69865;47.648;19.030;2023-05-07T01:45:07;10.07;;;10.07;;
80104;SDS011;69865;47.648;19.030;2023-05-07T01:45:38;10.13;;;10.13;;
80104;SDS011;69865;47.648;19.030;2023-05-07T01:46:10;10.77;;;10.77;;
80104;SDS011;69865;47.648;19.030;2023-05-07T01:46:43;10.60;;;10.60;;
80104;SDS011;69865;47.648;19.030;2023-05-07T01:47:14;10.80;;;10.80;;
80104;SDS011;69865;47.648;19.030;2023-05-07T01:47:46;10.90;;;10.90;;
80104;SDS011;69865;47.648;19.030;2023-05-07T01:48:17;10.23;;;10.23;;
80104;SDS011;69865;47.648;19.030;2023-05-07T01:48:48;10.83;;;10.83;;
80104;SDS011;69865;47.648;19.030;2023-05-07T01:49:20;10.03;;;10.03;;
80104;SDS011;69865;47.648;19.030;2023-05-07T01:49:51;9.57;;;9.57;;
80104;SDS011;69865;47.648;19.030;2023-05-07T01:50:22;10.07;;;10.07;;
80104;SDS011;69865;47.648;19.030;2023-05-07T01:50:53;10.27;;;10.27;;
80104;SDS011;69865;47.648;19.030;2023-05-07T01:51:25;10.43;;;10.43;;
80104;SDS011;69865;47.648;19.030;2023-05-07T01:51:56;10.30;;;10.30;;
80104;SDS011;69865;47.648;19.030;2023-05-07T01:52:28;10.50;;;10.50;;
80104;SDS011;69865;47.648;19.030;2023-05-07T01:53:00;10.63;;;10.63;;
80104;SDS011;69865;47.648;19.030;2023-05-07T01:53:35;10.33;;;10.33;;
80104;SDS011;69865;47.648;19.030;2023-05-07T01:54:06;10.63;;;10.63;;
80104;SDS011;69865;47.648;19.030;2023-05-07T01:54:36;10.80;;;10.80;;
80104;SDS011;69865;47.648;19.030;2023-05-07T01:55:07;9.73;;;9.73;;
80104;SDS011;69865;47.648;19.030;2023-05-07T01:55:38;9.90;;;9.90;;
80104;SDS011;69865;47.648;19.030;2023-05-07T01:56:09;10.40;;;10.40;;
80104;SDS011;69865;47.648;19.030;2023-05-07T01:56:40;10.63;;;10.63;;
80104;SDS011;69865;47.648;19.030;2023-05-07T01:57:11;10.43;;;10.43;;
80104;SDS011;69865;47.648;19.030;2023-05-07T01:57:42;10.93;;;10.93;;
80104;SDS011;69865;47.648;19.030;2023-05-07T01:58:12;10.13;;;10.13;;
80104;SDS011;69865;47.648;19.030;2023-05-07T01:58:43;9.67;;;9.67;;
80104;SDS011;69865;47.648;19.030;2023-05-07T01:59:14;9.90;;;9.90;;
80104;SDS011;69865;47.648;19.030;2023-05-07T01:59:45;10.70;;;10.70;;
80104;SDS011;69865;47.648;19.030;2023-05-07T02:00:16;10.97;;;10.97;;
80104;SDS011;69865;47.648;19.030;2023-05-07T02:00:47;10.53;;;10.53;;
80104;SDS011;69865;47.648;19.030;2023-05-07T02:01:18;10.00;;;10.00;;
80104;SDS011;69865;47.648;19.030;2023-05-07T02:01:49;10.03;;;10.03;;
80104;SDS011;69865;47.648;19.030;2023-05-07T02:02:19;9.37;;;9.37;;
80104;SDS011;69865;47.648;19.030;2023-05-07T02:02:50;9.30;;;9.30;;
80104;SDS011;69865;47.648;19.030;2023-05-07T02:03:21;10.70;;;10.70;;
80104;SDS011;69865;47.648;19.030;2023-05-07T02:03:52;10.87;;;10.87;;
80104;SDS011;69865;47.648;19.030;2023-05-07T02:04:22;10.07;;;10.07;;
80104;SDS011;69865;47.648;19.030;2023-05-07T02:04:53;9.47;;;9.47;;
80104;SDS011;69865;47.648;19.030;2023-05-07T02:05:24;10.00;;;10.00;;
80104;SDS011;69865;47.648;19.030;2023-05-07T02:05:55;10.67;;;10.67;;
80104;SDS011;69865;47.648;19.030;2023-05-07T02:06:25;9.90;;;9.90;;
80104;SDS011;69865;47.648;19.030;2023-05-07T02:06:56;9.90;;;9.90;;
80104;SDS011;69865;47.648;19.030;2023-05-07T02:07:27;10.70;;;10.70;;
80104;SDS011;69865;47.648;19.030;2023-05-07T02:07:58;9.83;;;9.83;;
80104;SDS011;69865;47.648;19.030;2023-05-07T02:08:30;9.30;;;9.30;;
80104;SDS011;69865;47.648;19.030;2023-05-07T02:09:00;9.53;;;9.53;;
80104;SDS011;69865;47.648;19.030;2023-05-07T02:09:31;10.07;;;10.07;;
80104;SDS011;69865;47.648;19.030;2023-05-07T02:10:02;10.03;;;10.03;;
80104;SDS011;69865;47.648;19.030;2023-05-07T02:10:33;9.57;;;9.57;;
80104;SDS011;69865;47.648;19.030;2023-05-07T02:11:03;9.57;;;9.57;;
80104;SDS011;69865;47.648;19.030;2023-05-07T02:11:34;8.97;;;8.97;;
80104;SDS011;69865;47.648;19.030;2023-05-07T02:12:05;8.93;;;8.93;;
80104;SDS011;69865;47.648;19.030;2023-05-07T02:12:36;8.97;;;8.97;;
80104;SDS011;69865;47.648;19.030;2023-05-07T02:13:07;8.73;;;8.73;;
80104;SDS011;69865;47.648;19.030;2023-05-07T02:13:37;9.43;;;9.43;;
80104;SDS011;69865;47.648;19.030;2023-05-07T02:14:08;9.33;;;9.33;;
80104;SDS011;69865;47.648;19.030;2023-05-07T02:14:39;9.73;;;9.73;;
80104;SDS011;69865;47.648;19.030;2023-05-07T02:15:10;9.60;;;9.60;;
80104;SDS011;69865;47.648;19.030;2023-05-07T02:15:40;9.67;;;9.67;;
80104;SDS011;69865;47.648;19.030;2023-05-07T02:16:11;9.60;;;9.60;;
80104;SDS011;69865;47.648;19.030;2023-05-07T02:16:42;9.60;;;9.60;;
80104;SDS011;69865;47.648;19.030;2023-05-07T02:17:12;9.77;;;9.77;;
80104;SDS011;69865;47.648;19.030;2023-05-07T02:17:57;9.33;;;9.33;;
80104;SDS011;69865;47.648;19.030;2023-05-07T02:18:30;9.80;;;9.80;;
80104;SDS011;69865;47.648;19.030;2023-05-07T02:19:00;9.23;;;9.23;;
80104;SDS011;69865;47.648;19.030;2023-05-07T02:19:31;8.73;;;8.73;;
80104;SDS011;69865;47.648;19.030;2023-05-07T02:20:02;9.00;;;9.00;;
80104;SDS011;69865;47.648;19.030;2023-05-07T02:20:33;9.33;;;9.33;;
80104;SDS011;69865;47.648;19.030;2023-05-07T02:21:04;9.80;;;9.80;;
80104;SDS011;69865;47.648;19.030;2023-05-07T02:21:34;9.30;;;9.30;;
80104;SDS011;69865;47.648;19.030;2023-05-07T02:22:06;9.30;;;9.30;;
80104;SDS011;69865;47.648;19.030;2023-05-07T02:22:37;9.00;;;9.00;;
80104;SDS011;69865;47.648;19.030;2023-05-07T02:23:08;8.67;;;8.67;;
80104;SDS011;69865;47.648;19.030;2023-05-07T02:23:40;9.37;;;9.37;;
80104;SDS011;69865;47.648;19.030;2023-05-07T02:24:11;10.03;;;10.03;;
80104;SDS011;69865;47.648;19.030;2023-05-07T02:24:42;9.90;;;9.90;;
80104;SDS011;69865;47.648;19.030;2023-05-07T02:25:12;10.20;;;10.20;;
80104;SDS011;69865;47.648;19.030;2023-05-07T02:25:43;9.17;;;9.17;;
80104;SDS011;69865;47.648;19.030;2023-05-07T02:26:14;9.47;;;9.47;;
80104;SDS011;69865;47.648;19.030;2023-05-07T02:26:45;9.73;;;9.73;;
80104;SDS011;69865;47.648;19.030;2023-05-07T02:27:15;9.70;;;9.70;;
80104;SDS011;69865;47.648;19.030;2023-05-07T02:27:46;9.67;;;9.67;;
80104;SDS011;69865;47.648;19.030;2023-05-07T02:28:17;9.77;;;9.77;;
80104;SDS011;69865;47.648;19.030;2023-05-07T02:28:48;9.93;;;9.93;;
80104;SDS011;69865;47.648;19.030;2023-05-07T02:29:18;10.43;;;10.43;;
80104;SDS011;69865;47.648;19.030;2023-05-07T02:29:49;10.23;;;10.23;;
80104;SDS011;69865;47.648;19.030;2023-05-07T02:30:20;9.77;;;9.77;;
80104;SDS011;69865;47.648;19.030;2023-05-07T02:30:50;10.13;;;10.13;;
80104;SDS011;69865;47.648;19.030;2023-05-07T02:31:21;10.00;;;10.00;;
80104;SDS011;69865;47.648;19.030;2023-05-07T02:31:52;10.03;;;10.03;;
80104;SDS011;69865;47.648;19.030;2023-05-07T02:32:22;10.17;;;10.17;;
80104;SDS011;69865;47.648;19.030;2023-05-07T02:32:53;10.37;;;10.37;;
80104;SDS011;69865;47.648;19.030;2023-05-07T02:33:24;10.17;;;10.17;;
80104;SDS011;69865;47.648;19.030;2023-05-07T02:33:55;10.27;;;10.27;;
80104;SDS011;69865;47.648;19.030;2023-05-07T02:34:26;10.90;;;10.90;;
80104;SDS011;69865;47.648;19.030;2023-05-07T02:34:56;10.73;;;10.73;;
80104;SDS011;69865;47.648;19.030;2023-05-07T02:35:27;11.00;;;11.00;;
80104;SDS011;69865;47.648;19.030;2023-05-07T02:36:04;10.87;;;10.87;;
80104;SDS011;69865;47.648;19.030;2023-05-07T02:36:36;9.83;;;9.83;;
80104;SDS011;69865;47.648;19.030;2023-05-07T02:37:07;11.07;;;11.07;;
80104;SDS011;69865;47.648;19.030;2023-05-07T02:37:37;11.17;;;11.17;;
80104;SDS011;69865;47.648;19.030;2023-05-07T02:38:08;10.30;;;10.30;;
80104;SDS011;69865;47.648;19.030;2023-05-07T02:38:40;10.03;;;10.03;;
80104;SDS011;69865;47.648;19.030;2023-05-07T02:39:11;10.40;;;10.40;;
80104;SDS011;69865;47.648;19.030;2023-05-07T02:39:42;11.20;;;11.20;;
80104;SDS011;69865;47.648;19.030;2023-05-07T02:40:13;10.93;;;10.93;;
80104;SDS011;69865;47.648;19.030;2023-05-07T02:40:44;10.23;;;10.23;;
80104;SDS011;69865;47.648;19.030;2023-05-07T02:41:14;10.23;;;10.23;;
80104;SDS011;69865;47.648;19.030;2023-05-07T02:41:45;10.07;;;10.07;;
80104;SDS011;69865;47.648;19.030;2023-05-07T02:42:16;9.90;;;9.90;;
80104;SDS011;69865;47.648;19.030;2023-05-07T02:42:47;9.83;;;9.83;;
80104;SDS011;69865;47.648;19.030;2023-05-07T02:43:17;9.97;;;9.97;;
80104;SDS011;69865;47.648;19.030;2023-05-07T02:43:48;10.13;;;10.13;;
80104;SDS011;69865;47.648;19.030;2023-05-07T02:44:19;10.13;;;10.13;;
80104;SDS011;69865;47.648;19.030;2023-05-07T02:44:49;9.80;;;9.80;;
80104;SDS011;69865;47.648;19.030;2023-05-07T02:45:20;10.33;;;10.33;;
80104;SDS011;69865;47.648;19.030;2023-05-07T02:45:59;10.07;;;10.07;;
80104;SDS011;69865;47.648;19.030;2023-05-07T02:46:30;10.20;;;10.20;;
80104;SDS011;69865;47.648;19.030;2023-05-07T02:47:01;9.63;;;9.63;;
80104;SDS011;69865;47.648;19.030;2023-05-07T02:47:32;9.77;;;9.77;;
80104;SDS011;69865;47.648;19.030;2023-05-07T02:48:03;9.80;;;9.80;;
80104;SDS011;69865;47.648;19.030;2023-05-07T02:48:34;9.77;;;9.77;;
80104;SDS011;69865;47.648;19.030;2023-05-07T02:49:05;10.17;;;10.17;;
80104;SDS011;69865;47.648;19.030;2023-05-07T02:49:36;10.13;;;10.13;;
80104;SDS011;69865;47.648;19.030;2023-05-07T02:50:07;10.00;;;10.00;;
80104;SDS011;69865;47.648;19.030;2023-05-07T02:50:38;10.07;;;10.07;;
80104;SDS011;69865;47.648;19.030;2023-05-07T02:51:08;10.20;;;10.20;;
80104;SDS011;69865;47.648;19.030;2023-05-07T02:51:39;9.97;;;9.97;;
80104;SDS011;69865;47.648;19.030;2023-05-07T02:52:10;10.10;;;10.10;;
80104;SDS011;69865;47.648;19.030;2023-05-07T02:52:40;9.80;;;9.80;;
80104;SDS011;69865;47.648;19.030;2023-05-07T02:53:11;9.90;;;9.90;;
80104;SDS011;69865;47.648;19.030;2023-05-07T02:53:43;10.53;;;10.53;;
80104;SDS011;69865;47.648;19.030;2023-05-07T02:54:14;10.37;;;10.37;;
80104;SDS011;69865;47.648;19.030;2023-05-07T02:54:45;9.87;;;9.87;;
80104;SDS011;69865;47.648;19.030;2023-05-07T02:55:15;9.87;;;9.87;;
80104;SDS011;69865;47.648;19.030;2023-05-07T02:55:46;10.30;;;10.30;;
80104;SDS011;69865;47.648;19.030;2023-05-07T02:56:17;10.83;;;10.83;;
80104;SDS011;69865;47.648;19.030;2023-05-07T02:56:48;10.40;;;10.40;;
80104;SDS011;69865;47.648;19.030;2023-05-07T02:57:18;11.20;;;11.20;;
80104;SDS011;69865;47.648;19.030;2023-05-07T02:57:49;9.83;;;9.83;;
80104;SDS011;69865;47.648;19.030;2023-05-07T02:58:20;10.10;;;10.10;;
80104;SDS011;69865;47.648;19.030;2023-05-07T02:58:51;10.13;;;10.13;;
80104;SDS011;69865;47.648;19.030;2023-05-07T02:59:21;10.37;;;10.37;;
80104;SDS011;69865;47.648;19.030;2023-05-07T02:59:52;10.37;;;10.37;;
80104;SDS011;69865;47.648;19.030;2023-05-07T03:00:23;9.67;;;9.67;;
80104;SDS011;69865;47.648;19.030;2023-05-07T03:00:54;10.60;;;10.60;;
80104;SDS011;69865;47.648;19.030;2023-05-07T03:01:25;10.57;;;10.57;;